Time;durP1;ratioP1;P1;durP2;ratioP2;P2;SDS_P1;SDS_P2;PMS_P1;PMS_P2;Temp;Humidity;BMP_temperature;BMP_pressure;BME280_temperature;BME280_humidity;BME280_pressure;Samples;Min_cycle;Max_cycle;Signal;HPM_P1;HPM_P2
2023/03/11 00:00:31;;;;;;;10.10;7.17;;;0.90;99.90;;;;;;4899332;29;20465;-75
2023/03/11 00:03:01;;;;;;;11.00;6.60;;;0.90;99.90;;;;;;4899302;29;20541;-75
2023/03/11 00:05:31;;;;;;;6.80;5.67;;;1.00;99.90;;;;;;4885835;29;20469;-75
2023/03/11 00:08:00;;;;;;;9.33;6.20;;;0.90;99.90;;;;;;4880630;29;20509;-75
2023/03/11 00:10:33;;;;;;;7.77;5.20;;;1.10;99.90;;;;;;4880488;29;20458;-75
2023/03/11 00:13:02;;;;;;;7.50;5.67;;;0.90;99.90;;;;;;4880432;29;20886;-75
2023/03/11 00:15:30;;;;;;;9.47;5.23;;;0.90;99.90;;;;;;4880411;29;20481;-76
2023/03/11 00:17:59;;;;;;;8.20;6.30;;;0.90;99.90;;;;;;4880381;29;20450;-76
2023/03/11 00:20:29;;;;;;;9.37;5.90;;;1.00;99.90;;;;;;4881822;29;20451;-76
2023/03/11 00:22:58;;;;;;;9.27;6.30;;;0.90;99.90;;;;;;4880163;29;20487;-76
2023/03/11 00:25:29;;;;;;;10.70;5.97;;;1.00;99.90;;;;;;4880079;29;20460;-75
2023/03/11 00:27:59;;;;;;;9.60;6.73;;;0.90;99.90;;;;;;4880442;29;20886;-76
2023/03/11 00:30:28;;;;;;;9.70;5.60;;;0.90;99.90;;;;;;4881367;29;20435;-75
2023/03/11 00:32:58;;;;;;;7.77;5.73;;;0.90;99.90;;;;;;4879646;29;20517;-76
2023/03/11 00:35:28;;;;;;;9.67;5.33;;;1.00;99.90;;;;;;4881427;29;20522;-75
2023/03/11 00:37:58;;;;;;;9.93;5.10;;;0.90;99.90;;;;;;4880013;29;20450;-76
2023/03/11 00:40:28;;;;;;;6.90;4.93;;;0.90;99.90;;;;;;4881172;29;20463;-75
2023/03/11 00:42:58;;;;;;;6.73;4.90;;;0.90;99.90;;;;;;4880107;29;20478;-76
2023/03/11 00:45:27;;;;;;;6.33;4.60;;;0.90;99.90;;;;;;4881935;29;20792;-75
2023/03/11 00:47:56;;;;;;;6.00;4.80;;;0.90;99.90;;;;;;4879802;29;20545;-75
2023/03/11 00:50:26;;;;;;;5.70;4.90;;;0.90;99.90;;;;;;4879808;29;20482;-75
2023/03/11 00:52:54;;;;;;;7.23;4.93;;;0.90;99.90;;;;;;4881013;29;20499;-75
2023/03/11 00:55:25;;;;;;;10.23;4.70;;;0.90;99.90;;;;;;4879628;29;20545;-75
2023/03/11 00:57:54;;;;;;;6.33;4.40;;;0.90;99.90;;;;;;4879715;29;20443;-75
2023/03/11 01:00:26;;;;;;;6.97;4.57;;;0.90;99.90;;;;;;4879720;29;20458;-75
2023/03/11 01:02:56;;;;;;;6.10;4.17;;;0.90;99.90;;;;;;4879558;29;20477;-76
2023/03/11 01:05:27;;;;;;;6.60;4.50;;;0.90;99.90;;;;;;4879547;29;20833;-75
2023/03/11 01:07:55;;;;;;;8.27;4.30;;;0.90;99.90;;;;;;4880070;29;20484;-75
2023/03/11 01:10:24;;;;;;;6.10;4.27;;;0.90;99.90;;;;;;4880607;29;20989;-75
2023/03/11 01:12:52;;;;;;;6.20;4.03;;;0.80;99.90;;;;;;4879350;29;20564;-75
2023/03/11 01:15:24;;;;;;;6.93;4.43;;;0.90;99.90;;;;;;4879288;29;20476;-75
2023/03/11 01:17:54;;;;;;;7.43;4.80;;;0.90;99.90;;;;;;4879365;29;20446;-75
2023/03/11 01:20:22;;;;;;;10.03;4.70;;;0.90;99.90;;;;;;4879304;29;20511;-75
2023/03/11 01:22:51;;;;;;;8.07;4.70;;;0.90;99.90;;;;;;4880368;29;20803;-76
2023/03/11 01:25:22;;;;;;;9.53;5.23;;;0.90;99.90;;;;;;4879103;29;20476;-75
2023/03/11 01:27:51;;;;;;;7.17;4.37;;;0.90;99.90;;;;;;4879165;29;20486;-75
2023/03/11 01:30:22;;;;;;;11.27;4.70;;;0.90;99.90;;;;;;4879085;29;20493;-76
2023/03/11 01:32:51;;;;;;;7.50;4.60;;;0.90;99.90;;;;;;4878968;29;20475;-75
2023/03/11 01:35:22;;;;;;;7.20;4.10;;;0.90;99.90;;;;;;4878904;29;20468;-75
2023/03/11 01:37:51;;;;;;;7.97;4.67;;;0.90;99.90;;;;;;4878983;29;20454;-75
2023/03/11 01:40:21;;;;;;;6.43;4.47;;;0.90;99.90;;;;;;4878910;29;20513;-75
2023/03/11 01:42:49;;;;;;;8.67;4.17;;;0.80;99.90;;;;;;4878612;29;20474;-75
2023/03/11 01:45:35;;;;;;;8.97;4.07;;;0.80;99.90;;;;;;4878404;29;20865;-75
2023/03/11 01:48:04;;;;;;;9.20;3.73;;;0.80;99.90;;;;;;4878919;29;20546;-75
2023/03/11 01:50:36;;;;;;;11.00;4.73;;;0.80;99.90;;;;;;4878803;29;20459;-75
2023/03/11 01:53:06;;;;;;;8.10;4.57;;;0.80;99.90;;;;;;4878731;29;20843;-75
2023/03/11 01:55:35;;;;;;;10.60;4.00;;;0.80;99.90;;;;;;4878670;29;20507;-75
2023/03/11 01:58:08;;;;;;;6.83;3.50;;;0.80;99.90;;;;;;4879949;29;20506;-75
2023/03/11 02:00:38;;;;;;;7.27;3.60;;;0.80;99.90;;;;;;4879652;29;20458;-75
2023/03/11 02:03:11;;;;;;;11.10;3.53;;;0.70;99.90;;;;;;4878755;29;20477;-75
2023/03/11 02:05:42;;;;;;;10.60;3.67;;;0.70;99.90;;;;;;4878652;29;20459;-75
2023/03/11 02:08:10;;;;;;;7.17;3.20;;;0.70;99.90;;;;;;4878686;29;20953;-75
2023/03/11 02:10:40;;;;;;;9.93;3.80;;;0.70;99.90;;;;;;4879005;29;20464;-75
2023/03/11 02:13:09;;;;;;;9.93;4.60;;;0.70;99.90;;;;;;4885177;29;20930;-75
2023/03/11 02:15:38;;;;;;;8.80;3.60;;;0.70;99.90;;;;;;4887726;29;21026;-75
2023/03/11 02:18:07;;;;;;;9.30;4.03;;;0.70;99.90;;;;;;4878377;29;20486;-74
2023/03/11 02:20:46;;;;;;;10.47;3.90;;;0.70;99.90;;;;;;4879843;29;20462;-75
2023/03/11 02:23:17;;;;;;;9.83;3.60;;;0.70;99.90;;;;;;4883617;29;20483;-75
2023/03/11 02:25:52;;;;;;;7.53;3.47;;;0.70;99.90;;;;;;4879631;29;20543;-75
2023/03/11 02:28:23;;;;;;;15.77;4.10;;;0.70;99.90;;;;;;4878378;29;20497;-75
2023/03/11 02:30:52;;;;;;;8.10;3.80;;;0.70;99.90;;;;;;4878398;29;20474;-75
2023/03/11 02:33:23;;;;;;;13.33;4.20;;;0.70;99.90;;;;;;4878456;29;20977;-75
2023/03/11 02:35:51;;;;;;;11.37;3.80;;;0.70;99.90;;;;;;4879747;29;20435;-75
2023/03/11 02:38:19;;;;;;;8.90;3.53;;;0.60;99.90;;;;;;4878321;29;20450;-75
2023/03/11 02:40:52;;;;;;;7.50;3.37;;;0.70;99.90;;;;;;4878328;29;20450;-75
2023/03/11 02:43:33;;;;;;;9.73;3.23;;;0.70;99.90;;;;;;4878301;29;20568;-75
2023/03/11 02:46:02;;;;;;;12.03;3.70;;;0.70;99.90;;;;;;4879990;29;20442;-75
2023/03/11 02:48:34;;;;;;;9.40;3.10;;;0.70;99.90;;;;;;4883647;29;20450;-75
2023/03/11 02:51:03;;;;;;;9.40;3.10;;;0.70;99.90;;;;;;4880496;29;20478;-75
2023/03/11 02:53:37;;;;;;;6.77;3.00;;;0.70;99.90;;;;;;4878407;29;20858;-75
2023/03/11 02:56:06;;;;;;;13.97;3.23;;;0.70;99.90;;;;;;4880943;29;20457;-75
2023/03/11 02:58:36;;;;;;;9.67;3.63;;;0.70;99.90;;;;;;4881880;29;20506;-74
2023/03/11 03:01:04;;;;;;;7.83;2.93;;;0.70;99.90;;;;;;4881753;29;20972;-75
2023/03/11 03:03:33;;;;;;;15.53;3.80;;;0.70;99.90;;;;;;4881579;29;20462;-75
2023/03/11 03:06:02;;;;;;;11.70;3.60;;;0.70;99.90;;;;;;4881673;29;20450;-75
2023/03/11 03:08:30;;;;;;;9.50;3.40;;;0.80;99.90;;;;;;4881572;29;20980;-75
2023/03/11 03:11:00;;;;;;;11.77;3.53;;;0.70;99.90;;;;;;4881565;29;20554;-75
2023/03/11 03:13:28;;;;;;;11.37;4.23;;;0.70;99.90;;;;;;4881418;29;20522;-75
2023/03/11 03:15:58;;;;;;;11.43;3.83;;;0.70;99.90;;;;;;4881447;29;20526;-75
2023/03/11 03:18:27;;;;;;;8.63;3.27;;;0.70;99.90;;;;;;4881829;29;20560;-75
2023/03/11 03:20:55;;;;;;;6.90;2.77;;;0.70;99.90;;;;;;4891611;29;20458;-75
2023/03/11 03:23:23;;;;;;;10.00;3.00;;;0.70;99.90;;;;;;4888891;29;20485;-75
2023/03/11 03:25:51;;;;;;;12.33;3.40;;;0.80;99.90;;;;;;4888924;29;20901;-75
2023/03/11 03:28:20;;;;;;;9.73;3.03;;;0.70;99.90;;;;;;4900012;29;20852;-75
2023/03/11 03:30:48;;;;;;;9.23;2.97;;;0.80;99.90;;;;;;4899953;29;20489;-75
2023/03/11 03:33:18;;;;;;;10.27;3.17;;;0.70;99.90;;;;;;4899797;29;20477;-74
2023/03/11 03:35:47;;;;;;;8.73;3.00;;;0.70;99.90;;;;;;4899848;29;20545;-75
2023/03/11 03:38:24;;;;;;;7.97;2.60;;;0.70;99.90;;;;;;4899742;29;20521;-75
2023/03/11 03:40:53;;;;;;;10.03;3.23;;;0.70;99.90;;;;;;4899705;29;20532;-75
2023/03/11 03:43:22;;;;;;;10.60;3.03;;;0.70;99.90;;;;;;4899665;29;20473;-74
2023/03/11 03:45:57;;;;;;;8.63;2.90;;;0.70;99.90;;;;;;4899648;29;20529;-75
2023/03/11 03:48:30;;;;;;;7.13;2.70;;;0.70;99.90;;;;;;4899644;29;20479;-75
2023/03/11 03:51:04;;;;;;;8.43;2.60;;;0.70;99.90;;;;;;4899835;29;20457;-75
2023/03/11 03:53:35;;;;;;;7.93;2.53;;;0.70;99.90;;;;;;4899535;29;20483;-75
2023/03/11 03:56:04;;;;;;;7.07;2.77;;;0.70;99.90;;;;;;4900824;29;20441;-75
2023/03/11 03:58:34;;;;;;;6.43;2.60;;;0.60;99.90;;;;;;4899415;29;20477;-75
2023/03/11 04:01:03;;;;;;;9.63;2.90;;;0.60;99.90;;;;;;4899409;29;20833;-75
2023/03/11 04:03:34;;;;;;;8.27;3.10;;;0.60;99.90;;;;;;4899339;29;20552;-75
2023/03/11 04:06:11;;;;;;;9.53;2.80;;;0.60;99.90;;;;;;4898885;29;20511;-75
2023/03/11 04:08:39;;;;;;;6.60;2.57;;;0.60;99.90;;;;;;4889338;29;20456;-75
2023/03/11 04:11:09;;;;;;;6.60;2.23;;;0.60;99.90;;;;;;4880553;29;20495;-75
2023/03/11 04:13:38;;;;;;;10.20;2.30;;;0.60;99.90;;;;;;4880383;29;20578;-75
2023/03/11 04:16:08;;;;;;;7.93;2.87;;;0.60;99.90;;;;;;4880475;29;20541;-75
2023/03/11 04:18:37;;;;;;;7.27;2.80;;;0.60;99.90;;;;;;4880261;29;20471;-75
2023/03/11 04:21:08;;;;;;;6.50;2.40;;;0.60;99.90;;;;;;4880361;29;20548;-74
2023/03/11 04:23:36;;;;;;;8.00;2.60;;;0.60;99.90;;;;;;4880935;29;20486;-75
2023/03/11 04:26:07;;;;;;;7.20;2.93;;;0.60;99.90;;;;;;4880250;29;20467;-75
2023/03/11 04:28:38;;;;;;;7.50;2.60;;;0.60;99.90;;;;;;4880276;29;20446;-75
2023/03/11 04:31:06;;;;;;;9.87;2.70;;;0.60;99.90;;;;;;4883198;29;20547;-75
2023/03/11 04:33:35;;;;;;;8.33;2.27;;;0.60;99.90;;;;;;4880010;29;20557;-75
2023/03/11 04:36:08;;;;;;;6.20;2.80;;;0.60;99.90;;;;;;4880116;29;20530;-75
2023/03/11 04:38:39;;;;;;;5.73;2.20;;;0.60;99.90;;;;;;4880167;29;20478;-75
2023/03/11 04:41:09;;;;;;;6.30;2.03;;;0.60;99.90;;;;;;4880291;29;20490;-75
2023/03/11 04:43:40;;;;;;;8.57;2.83;;;0.50;99.90;;;;;;4880184;29;20893;-75
2023/03/11 04:46:08;;;;;;;5.40;2.33;;;0.50;99.90;;;;;;4881315;29;20443;-75
2023/03/11 04:48:37;;;;;;;11.07;2.40;;;0.60;99.90;;;;;;4879905;29;20469;-75
2023/03/11 04:51:08;;;;;;;7.90;2.60;;;0.50;99.90;;;;;;4888194;29;20557;-75
2023/03/11 04:53:37;;;;;;;10.07;2.40;;;0.60;99.90;;;;;;4898424;29;20843;-75
2023/03/11 04:56:06;;;;;;;6.73;2.17;;;0.60;99.90;;;;;;4898360;29;20944;-75
2023/03/11 04:58:36;;;;;;;6.13;2.70;;;0.50;99.90;;;;;;4898313;29;20477;-75
2023/03/11 05:01:05;;;;;;;5.23;2.13;;;0.50;99.90;;;;;;4898297;29;20458;-74
2023/03/11 05:03:34;;;;;;;6.80;2.70;;;0.60;99.90;;;;;;4898212;29;20481;-75
2023/03/11 05:06:02;;;;;;;12.67;2.47;;;0.60;99.90;;;;;;4898252;29;20458;-75
2023/03/11 05:08:31;;;;;;;7.57;2.20;;;0.60;99.90;;;;;;4898141;29;20450;-75
2023/03/11 05:11:00;;;;;;;6.47;2.47;;;0.60;99.90;;;;;;4898165;29;20510;-75
2023/03/11 05:13:29;;;;;;;5.20;2.47;;;0.60;99.90;;;;;;4898000;29;20535;-75
2023/03/11 05:15:57;;;;;;;6.57;2.73;;;0.60;99.90;;;;;;4898320;29;20461;-75
2023/03/11 05:18:26;;;;;;;7.60;2.37;;;0.60;99.90;;;;;;4897899;29;20536;-75
2023/03/11 05:20:54;;;;;;;7.23;3.20;;;0.50;99.90;;;;;;4898191;29;20803;-75
2023/03/11 05:23:26;;;;;;;5.77;2.97;;;0.50;99.90;;;;;;4897822;29;20484;-75
2023/03/11 05:25:55;;;;;;;6.97;2.87;;;0.50;99.90;;;;;;4897730;29;20525;-75
2023/03/11 05:28:23;;;;;;;10.23;3.50;;;0.60;99.90;;;;;;4897809;29;20454;-75
2023/03/11 05:30:53;;;;;;;7.70;3.80;;;0.50;99.90;;;;;;4897720;29;20461;-75
2023/03/11 05:33:22;;;;;;;6.90;2.80;;;0.50;99.90;;;;;;4897658;29;20489;-75
2023/03/11 05:35:53;;;;;;;8.27;3.30;;;0.50;99.90;;;;;;4897983;29;20449;-75
2023/03/11 05:38:21;;;;;;;7.90;3.57;;;0.50;99.90;;;;;;4897544;29;20509;-75
2023/03/11 05:40:49;;;;;;;8.37;2.90;;;0.50;99.90;;;;;;4894694;29;20453;-74
2023/03/11 05:43:19;;;;;;;6.17;3.30;;;0.50;99.90;;;;;;4897499;29;20512;-75
2023/03/11 05:45:52;;;;;;;6.00;2.47;;;0.50;99.90;;;;;;4897879;29;20511;-75
2023/03/11 05:48:20;;;;;;;11.07;2.60;;;0.40;99.90;;;;;;4897468;29;20835;-75
2023/03/11 05:50:49;;;;;;;8.80;2.70;;;0.40;99.90;;;;;;4897454;29;21050;-75
2023/03/11 05:53:18;;;;;;;7.03;2.63;;;0.40;99.90;;;;;;4897341;29;21062;-75
2023/03/11 05:55:55;;;;;;;7.10;2.90;;;0.40;99.90;;;;;;4898584;29;20457;-75
2023/03/11 05:58:25;;;;;;;10.10;3.90;;;0.40;99.90;;;;;;4897350;29;20473;-74
2023/03/11 06:00:54;;;;;;;10.23;3.13;;;0.40;99.90;;;;;;4897641;29;20441;-75
2023/03/11 06:03:22;;;;;;;8.80;2.53;;;0.40;99.90;;;;;;4898565;29;20469;-75
2023/03/11 06:05:51;;;;;;;8.07;2.43;;;0.40;99.90;;;;;;4897212;29;20467;-75
2023/03/11 06:08:20;;;;;;;8.00;2.80;;;0.40;99.90;;;;;;4897147;29;20454;-75
2023/03/11 06:10:49;;;;;;;7.83;3.20;;;0.40;99.90;;;;;;4897123;29;20457;-74
2023/03/11 06:13:19;;;;;;;8.07;2.63;;;0.40;99.90;;;;;;4898204;29;20588;-75
2023/03/11 06:15:51;;;;;;;8.33;2.83;;;0.40;99.90;;;;;;4897155;29;20518;-75
2023/03/11 06:18:21;;;;;;;8.80;2.77;;;0.40;99.90;;;;;;4896965;29;21002;-75
2023/03/11 06:20:49;;;;;;;10.47;3.17;;;0.40;99.90;;;;;;4897075;29;20552;-75
2023/03/11 06:23:17;;;;;;;8.90;3.40;;;0.50;99.90;;;;;;4896981;29;20477;-75
2023/03/11 06:25:55;;;;;;;6.40;3.10;;;0.80;99.90;;;;;;4896896;29;20453;-75
2023/03/11 06:28:24;;;;;;;5.40;2.17;;;0.50;99.90;;;;;;4897062;29;20820;-75
2023/03/11 06:30:55;;;;;;;5.73;2.33;;;0.50;99.90;;;;;;4901643;29;20538;-75
2023/03/11 06:33:24;;;;;;;5.70;2.73;;;0.60;99.90;;;;;;4903173;29;20567;-75
2023/03/11 06:35:58;;;;;;;6.17;2.73;;;0.60;99.90;;;;;;4903230;29;20444;-75
2023/03/11 06:38:27;;;;;;;6.80;2.10;;;0.60;99.90;;;;;;4903252;29;20854;-75
2023/03/11 06:40:59;;;;;;;6.83;2.33;;;0.60;99.90;;;;;;4903193;29;21002;-75
2023/03/11 06:43:27;;;;;;;7.60;2.23;;;0.80;99.90;;;;;;4905909;29;20982;-75
2023/03/11 06:45:58;;;;;;;5.87;2.43;;;0.60;99.90;;;;;;4904697;29;20448;-75
2023/03/11 06:48:27;;;;;;;6.23;2.23;;;0.60;99.90;;;;;;4903493;29;21038;-75
2023/03/11 06:50:55;;;;;;;6.47;2.47;;;0.60;99.90;;;;;;4903375;29;20450;-75
2023/03/11 06:53:25;;;;;;;6.43;2.63;;;0.60;99.90;;;;;;4900215;29;20489;-74
2023/03/11 06:56:05;;;;;;;6.37;3.00;;;0.60;99.90;;;;;;4901940;29;20461;-74
2023/03/11 06:58:40;;;;;;;6.20;2.40;;;0.50;99.90;;;;;;4903010;29;20964;-75
2023/03/11 07:01:13;;;;;;;6.60;2.70;;;0.50;99.90;;;;;;4903365;29;20446;-74
2023/03/11 07:03:43;;;;;;;8.27;2.67;;;0.50;99.90;;;;;;4903240;29;20485;-75
2023/03/11 07:06:13;;;;;;;7.90;2.60;;;0.50;99.90;;;;;;4902980;29;20460;-75
2023/03/11 07:08:41;;;;;;;6.83;2.17;;;0.40;99.90;;;;;;4902910;29;20454;-75
2023/03/11 07:11:13;;;;;;;7.60;2.70;;;0.50;99.90;;;;;;4902952;29;20482;-75
2023/03/11 07:13:42;;;;;;;5.23;2.63;;;0.50;99.90;;;;;;4903120;29;20480;-74
2023/03/11 07:16:14;;;;;;;8.20;3.30;;;0.50;99.90;;;;;;4902891;29;20901;-74
2023/03/11 07:18:44;;;;;;;8.60;2.93;;;0.50;99.90;;;;;;4902796;29;21008;-74
2023/03/11 07:21:14;;;;;;;7.43;3.37;;;0.50;99.90;;;;;;4902859;29;20454;-74
2023/03/11 07:23:43;;;;;;;5.30;2.23;;;0.50;99.90;;;;;;4903991;29;20982;-74
2023/03/11 07:26:13;;;;;;;7.30;2.70;;;0.50;99.90;;;;;;4903851;29;20891;-74
2023/03/11 07:28:43;;;;;;;11.67;2.97;;;0.50;99.90;;;;;;4902750;29;20457;-74
2023/03/11 07:31:18;;;;;;;6.30;2.60;;;0.50;99.90;;;;;;4902714;29;20481;-74
2023/03/11 07:33:47;;;;;;;7.00;3.07;;;0.60;99.90;;;;;;4904244;29;20473;-74
2023/03/11 07:36:17;;;;;;;6.43;3.67;;;0.60;99.90;;;;;;4903967;29;20535;-74
2023/03/11 07:38:46;;;;;;;7.23;3.13;;;0.60;99.90;;;;;;4902686;29;20995;-74
2023/03/11 07:41:15;;;;;;;6.67;3.67;;;0.70;99.90;;;;;;4900816;29;20901;-74
2023/03/11 07:43:44;;;;;;;8.40;3.13;;;0.70;99.90;;;;;;4900797;29;20469;-74
2023/03/11 07:46:17;;;;;;;7.47;3.07;;;0.70;99.90;;;;;;4900856;29;20437;-74
2023/03/11 07:48:46;;;;;;;6.80;2.50;;;0.80;99.90;;;;;;4899555;29;20932;-74
2023/03/11 07:51:17;;;;;;;8.20;3.20;;;0.80;99.90;;;;;;4899569;29;20456;-74
2023/03/11 07:53:46;;;;;;;5.47;2.03;;;0.90;99.90;;;;;;4899484;29;20481;-74
2023/03/11 07:56:15;;;;;;;6.20;2.60;;;0.90;99.90;;;;;;4900708;29;20440;-74
2023/03/11 07:58:44;;;;;;;5.90;2.63;;;1.00;99.90;;;;;;4900589;29;20836;-74
2023/03/11 08:01:16;;;;;;;6.90;2.87;;;1.10;99.90;;;;;;4899673;29;20514;-74
2023/03/11 08:03:45;;;;;;;5.00;2.30;;;1.10;99.90;;;;;;4900846;29;20461;-74
2023/03/11 08:06:14;;;;;;;8.07;2.60;;;1.20;99.90;;;;;;4900489;29;20967;-74
2023/03/11 08:08:42;;;;;;;6.63;2.43;;;1.20;99.90;;;;;;4899305;29;20458;-74
2023/03/11 08:11:12;;;;;;;5.97;2.30;;;1.30;99.90;;;;;;4900738;29;20442;-74
2023/03/11 08:13:40;;;;;;;7.87;2.70;;;1.40;99.90;;;;;;4899124;29;20479;-74
2023/03/11 08:16:17;;;;;;;6.30;1.90;;;1.50;99.90;;;;;;4899089;29;20900;-74
2023/03/11 08:18:46;;;;;;;8.30;2.43;;;1.70;99.90;;;;;;4900328;29;20441;-74
2023/03/11 08:21:16;;;;;;;7.63;2.73;;;1.90;99.90;;;;;;4899008;29;20959;-74
2023/03/11 08:23:45;;;;;;;6.53;2.60;;;2.00;99.90;;;;;;4900207;29;20526;-74
2023/03/11 08:26:16;;;;;;;8.93;2.83;;;2.20;99.90;;;;;;4900133;29;20491;-74
2023/03/11 08:28:44;;;;;;;5.20;2.33;;;2.30;99.90;;;;;;4900454;29;20429;-74
2023/03/11 08:31:13;;;;;;;6.07;2.57;;;2.40;99.90;;;;;;4900217;29;20494;-74
2023/03/11 08:33:43;;;;;;;6.17;2.90;;;2.50;99.90;;;;;;4898826;29;20480;-74
2023/03/11 08:36:12;;;;;;;7.97;2.70;;;2.70;99.90;;;;;;4900339;29;20883;-74
2023/03/11 08:38:40;;;;;;;6.40;2.33;;;2.80;99.90;;;;;;4900112;29;20492;-75
2023/03/11 08:41:08;;;;;;;5.57;2.40;;;2.90;99.90;;;;;;4898654;29;20922;-75
2023/03/11 08:43:36;;;;;;;6.47;2.53;;;3.10;99.90;;;;;;4898592;29;20480;-75
2023/03/11 08:46:06;;;;;;;5.17;2.50;;;3.20;99.90;;;;;;4898600;29;20866;-75
2023/03/11 08:48:36;;;;;;;6.43;3.07;;;3.30;99.90;;;;;;4899817;29;20481;-75
2023/03/11 08:51:10;;;;;;;6.90;2.63;;;3.30;99.90;;;;;;4898489;29;20455;-75
2023/03/11 08:53:39;;;;;;;8.30;2.57;;;3.40;99.90;;;;;;4898140;29;20465;-74
2023/03/11 08:56:08;;;;;;;7.40;3.27;;;3.50;99.90;;;;;;4899672;29;20454;-75
2023/03/11 08:58:36;;;;;;;7.43;3.10;;;3.50;99.90;;;;;;4898444;29;20920;-75
2023/03/11 09:01:05;;;;;;;7.10;2.70;;;3.60;99.90;;;;;;4898195;29;21007;-75
2023/03/11 09:03:34;;;;;;;14.10;3.67;;;3.70;99.90;;;;;;4899459;29;20460;-76
2023/03/11 09:06:04;;;;;;;7.73;3.13;;;3.70;99.90;;;;;;4898240;29;20457;-75
2023/03/11 09:08:34;;;;;;;4.57;2.37;;;3.80;99.90;;;;;;4898240;29;21022;-76
2023/03/11 09:11:02;;;;;;;8.00;2.77;;;3.80;99.90;;;;;;4898185;29;20867;-75
2023/03/11 09:13:30;;;;;;;10.00;3.60;;;3.80;99.90;;;;;;4898080;29;21021;-75
2023/03/11 09:15:58;;;;;;;4.77;2.47;;;3.90;99.90;;;;;;4898036;29;20459;-75
2023/03/11 09:18:28;;;;;;;10.37;3.33;;;3.90;99.90;;;;;;4897988;29;20809;-75
2023/03/11 09:20:57;;;;;;;4.70;2.50;;;3.90;99.90;;;;;;4899099;29;20485;-75
2023/03/11 09:23:25;;;;;;;10.73;3.47;;;3.90;99.90;;;;;;4897859;29;20568;-75
2023/03/11 09:25:55;;;;;;;7.90;2.53;;;3.90;99.90;;;;;;4897725;29;20971;-75
2023/03/11 09:28:23;;;;;;;6.43;3.20;;;3.90;99.90;;;;;;4897863;29;20450;-75
2023/03/11 09:30:51;;;;;;;6.93;2.90;;;4.00;99.90;;;;;;4897800;29;20524;-75
2023/03/11 09:33:19;;;;;;;5.80;2.40;;;3.90;99.90;;;;;;4897702;29;20469;-75
2023/03/11 09:35:47;;;;;;;8.87;3.37;;;3.90;99.90;;;;;;4897708;29;20549;-75
2023/03/11 09:38:15;;;;;;;10.53;3.53;;;3.90;99.90;;;;;;4897706;29;20536;-75
2023/03/11 09:40:52;;;;;;;4.50;2.30;;;3.90;99.90;;;;;;4897579;29;20480;-75
2023/03/11 09:43:32;;;;;;;5.80;3.10;;;3.90;99.90;;;;;;4898777;29;20489;-75
2023/03/11 09:46:10;;;;;;;8.93;2.87;;;3.80;99.90;;;;;;4897584;29;20516;-75
2023/03/11 09:48:44;;;;;;;7.90;3.20;;;3.80;99.90;;;;;;4897824;29;20456;-75
2023/03/11 09:51:21;;;;;;;7.70;3.20;;;3.80;99.90;;;;;;4899038;29;20439;-75
2023/03/11 09:53:55;;;;;;;5.63;2.73;;;3.80;99.90;;;;;;4898724;29;20460;-75
2023/03/11 09:56:23;;;;;;;7.57;4.03;;;3.80;99.90;;;;;;4898667;29;20951;-75
2023/03/11 09:58:56;;;;;;;6.90;3.00;;;3.80;99.90;;;;;;4898800;29;20455;-75
2023/03/11 10:01:27;;;;;;;5.40;2.80;;;3.80;99.90;;;;;;4898663;29;20588;-75
2023/03/11 10:03:57;;;;;;;7.23;2.70;;;3.80;99.90;;;;;;4898234;29;20981;-75
2023/03/11 10:06:29;;;;;;;9.00;3.10;;;3.80;99.90;;;;;;4896878;29;20843;-75
2023/03/11 10:09:04;;;;;;;7.23;2.70;;;3.80;99.90;;;;;;4897189;29;20512;-75
2023/03/11 10:11:45;;;;;;;7.03;3.17;;;3.80;99.90;;;;;;4897224;29;20456;-75
2023/03/11 10:14:28;;;;;;;5.37;2.90;;;3.80;99.90;;;;;;4898401;29;20472;-75
2023/03/11 10:17:04;;;;;;;5.70;2.87;;;3.80;99.90;;;;;;4897216;29;20826;-75
2023/03/11 10:19:42;;;;;;;7.03;3.10;;;3.80;99.90;;;;;;4897411;29;20850;-75
2023/03/11 10:22:17;;;;;;;7.03;3.80;;;3.80;99.90;;;;;;4897041;29;20482;-75
2023/03/11 10:25:03;;;;;;;8.13;2.60;;;3.80;99.90;;;;;;4897829;29;20542;-75
2023/03/11 10:27:36;;;;;;;6.93;3.20;;;3.80;99.90;;;;;;4897447;29;20453;-75
2023/03/11 10:30:13;;;;;;;7.10;2.90;;;3.80;99.90;;;;;;4897181;29;20456;-75
2023/03/11 10:32:48;;;;;;;5.47;2.63;;;3.80;99.90;;;;;;4898292;29;20525;-75
2023/03/11 10:35:18;;;;;;;4.60;2.73;;;3.80;99.90;;;;;;4897244;29;20802;-75
2023/03/11 10:37:53;;;;;;;6.60;2.70;;;3.80;99.90;;;;;;4898421;29;20434;-75
2023/03/11 10:40:29;;;;;;;12.43;2.60;;;3.80;99.90;;;;;;4898359;29;20463;-75
2023/03/11 10:43:00;;;;;;;7.63;3.53;;;3.80;99.90;;;;;;4898090;29;20467;-75
2023/03/11 10:45:37;;;;;;;11.30;3.83;;;3.90;99.90;;;;;;4898115;29;20519;-75
2023/03/11 10:48:10;;;;;;;5.10;2.97;;;3.90;99.90;;;;;;4896888;29;20457;-75
2023/03/11 10:50:45;;;;;;;7.73;2.77;;;3.90;99.90;;;;;;4896864;29;20457;-75
2023/03/11 10:53:16;;;;;;;6.37;2.80;;;3.90;99.90;;;;;;4896760;29;20535;-75
2023/03/11 10:55:47;;;;;;;6.97;2.80;;;3.90;99.90;;;;;;4898317;29;20518;-75
2023/03/11 10:58:18;;;;;;;7.40;2.97;;;3.90;99.90;;;;;;4898288;29;20436;-75
2023/03/11 11:01:00;;;;;;;8.00;3.10;;;4.00;99.90;;;;;;4898231;29;20457;-75
2023/03/11 11:03:29;;;;;;;6.37;3.30;;;4.00;99.90;;;;;;4896684;29;20481;-75
2023/03/11 11:06:00;;;;;;;6.80;2.90;;;4.00;99.90;;;;;;4897900;29;20508;-75
2023/03/11 11:08:29;;;;;;;8.23;2.80;;;4.00;99.90;;;;;;4896733;29;20452;-75
2023/03/11 11:10:58;;;;;;;7.37;2.77;;;4.00;99.90;;;;;;4896610;29;20464;-75
2023/03/11 11:13:30;;;;;;;9.50;3.70;;;4.10;99.90;;;;;;4896557;29;20572;-75
2023/03/11 11:16:02;;;;;;;6.57;3.10;;;4.10;99.90;;;;;;4899046;29;20465;-75
2023/03/11 11:18:33;;;;;;;5.80;2.80;;;4.10;99.90;;;;;;4901959;29;20431;-75
2023/03/11 11:21:05;;;;;;;6.60;2.80;;;4.10;99.90;;;;;;4901313;29;20461;-75
2023/03/11 11:23:38;;;;;;;6.23;2.93;;;4.20;99.90;;;;;;4900087;29;20567;-75
2023/03/11 11:26:14;;;;;;;5.17;2.30;;;4.20;99.90;;;;;;4901262;29;20461;-75
2023/03/11 11:28:43;;;;;;;9.17;2.47;;;4.20;99.90;;;;;;4901281;29;20429;-75
2023/03/11 11:31:27;;;;;;;5.03;2.03;;;4.30;99.90;;;;;;4901157;29;20437;-75
2023/03/11 11:33:56;;;;;;;6.60;2.30;;;4.30;99.90;;;;;;4897650;29;20555;-76
2023/03/11 11:36:29;;;;;;;9.10;2.90;;;4.30;99.90;;;;;;4899891;29;20453;-75
2023/03/11 11:39:01;;;;;;;6.20;2.80;;;4.30;99.90;;;;;;4901452;29;20791;-75
2023/03/11 11:41:32;;;;;;;7.03;2.77;;;4.30;99.90;;;;;;4900976;29;20457;-75
2023/03/11 11:44:03;;;;;;;9.87;2.67;;;4.30;99.90;;;;;;4899671;29;20477;-75
2023/03/11 11:46:37;;;;;;;5.30;2.20;;;4.40;99.90;;;;;;4900929;29;20458;-75
2023/03/11 11:49:18;;;;;;;6.53;2.60;;;4.40;99.90;;;;;;4900917;29;20778;-75
2023/03/11 11:51:53;;;;;;;13.63;2.93;;;4.40;99.90;;;;;;4899593;29;20453;-75
2023/03/11 11:54:26;;;;;;;7.37;2.33;;;4.40;99.90;;;;;;4899504;29;20880;-75
2023/03/11 11:56:55;;;;;;;6.77;2.90;;;4.50;99.90;;;;;;4899533;29;20455;-75
2023/03/11 11:59:24;;;;;;;4.33;2.70;;;4.50;99.90;;;;;;4900677;29;20445;-75
2023/03/11 12:02:07;;;;;;;7.23;2.20;;;4.50;99.90;;;;;;4899355;29;20472;-75
2023/03/11 12:04:55;;;;;;;6.13;2.27;;;4.50;99.90;;;;;;4900577;29;20501;-75
2023/03/11 12:07:39;;;;;;;6.47;2.60;;;4.50;99.90;;;;;;4899354;29;20988;-75
2023/03/11 12:10:23;;;;;;;4.40;2.20;;;4.60;99.90;;;;;;4900826;29;20485;-75
2023/03/11 12:13:16;;;;;;;10.93;2.17;;;4.60;99.90;;;;;;4900471;29;20461;-74
2023/03/11 12:15:49;;;;;;;8.73;2.90;;;4.60;99.90;;;;;;4896234;29;20461;-75
2023/03/11 12:18:25;;;;;;;4.70;2.10;;;4.70;99.90;;;;;;4899242;29;20545;-74
2023/03/11 12:20:55;;;;;;;6.70;2.37;;;4.70;99.90;;;;;;4900288;29;20421;-75
2023/03/11 12:23:42;;;;;;;4.23;2.00;;;4.70;99.90;;;;;;4898954;29;20480;-74
2023/03/11 12:26:16;;;;;;;5.43;2.13;;;4.70;99.90;;;;;;4898991;29;20461;-74
2023/03/11 12:28:50;;;;;;;6.47;1.70;;;4.70;99.90;;;;;;4898392;29;20444;-74
2023/03/11 12:31:19;;;;;;;5.60;1.80;;;4.80;99.90;;;;;;4898915;29;20536;-75
2023/03/11 12:33:55;;;;;;;5.37;2.10;;;4.80;99.90;;;;;;4900041;29;20524;-74
2023/03/11 12:36:25;;;;;;;6.43;2.47;;;4.80;99.90;;;;;;4900308;29;20433;-74
2023/03/11 12:38:54;;;;;;;10.23;2.67;;;4.90;99.90;;;;;;4900296;29;20448;-74
2023/03/11 12:41:32;;;;;;;6.50;2.20;;;4.90;99.90;;;;;;4900082;29;20445;-75
2023/03/11 12:44:06;;;;;;;5.20;2.17;;;5.00;99.90;;;;;;4900355;29;20464;-75
2023/03/11 12:47:10;;;;;;;6.37;2.03;;;5.00;99.90;;;;;;4900265;29;20433;-74
2023/03/11 12:49:42;;;;;;;6.17;2.20;;;5.00;99.90;;;;;;4899858;29;20425;-74
2023/03/11 12:52:23;;;;;;;7.60;1.77;;;5.10;99.90;;;;;;4899836;29;20421;-74
2023/03/11 12:55:37;;;;;;;6.83;2.23;;;5.20;99.90;;;;;;4898734;29;20460;-74
2023/03/11 12:58:53;;;;;;;4.63;1.70;;;5.20;99.90;;;;;;4899612;29;20463;-74
2023/03/11 13:01:45;;;;;;;5.63;2.50;;;5.20;99.90;;;;;;4880292;29;20497;-74
2023/03/11 13:04:41;;;;;;;8.43;2.53;;;5.30;99.90;;;;;;4895851;29;20477;-74
2023/03/11 13:07:42;;;;;;;6.10;2.30;;;5.30;99.90;;;;;;4896016;29;20464;-74
2023/03/11 13:10:20;;;;;;;4.70;1.97;;;5.30;99.90;;;;;;4898130;29;20959;-74
2023/03/11 13:12:49;;;;;;;4.93;1.93;;;5.40;99.90;;;;;;4899367;29;20453;-74
2023/03/11 13:15:36;;;;;;;7.30;2.57;;;5.40;99.90;;;;;;4899607;29;20449;-74
2023/03/11 13:18:22;;;;;;;4.63;1.93;;;5.50;99.90;;;;;;4899341;29;20532;-73